Teretulemast minu uuele ilmaprognooside lehele
Praegu on leht veel arendamise järgus: tõlked, linnade lisamine, menüüde korrastamine jne.
Endine leht vt. menüüs! / Andke teada probleemidest(nt. koha valik - kas töötab jne.) menüüs: Muu kraam - Saada kiri.



Puudub vajadus erihoiatuste järele    Hoiatusi ei ole
/home/edgarnuum/domains/hotserv.eq.ee/public_html/nautical/weatherpro/metar/metarDisplay.php

Nearby METAR Reports

   
EEKE - Kuressaare, Estonia
Distance from station: SE 3 km
Uuendatud: 28-09-2022 18:50
Few Clouds  
Few Clouds  
   Tuul: East 6.2 m/s
Tuul: East 6.2 m/s
Temperatuur: 12°C
Kastepunkt: 6°C
Niiskus: 67%
Baromeeter: 1003 hPa
Pilvisus: Few Clouds
Nähtavus: More than 10 km
Cloud details: Few Clouds 1097.3 m
EEKE 281550Z 09012KT 9999 FEW036 12/06 Q1003
EEKA - Kardla, Estonia
Distance from station: NNE 84 km
Uuendatud: 28-09-2022 18:20
Clear  
Clear  
   Tuul: East 4.6 m/s
Tuul: East 4.6 m/s
Temperatuur: 13°C
Kastepunkt: 5°C
Niiskus: 59%
Baromeeter: 1004 hPa
Nähtavus: More than 10 km
Cloud details: Clear m
EEKA 281520Z 08009KT CAVOK 13/05 Q1004
EEEI - Harjumaa Amari, Estonia
Distance from station: NE 151 km
Uuendatud: 28-09-2022 18:50
Clear  
Clear  
   Tuul: ENE 4.1 m/s
Tuul: ENE 4.1 m/s
Temperatuur: 11°C
Kastepunkt: 5°C
Niiskus: 67%
Baromeeter: 1005 hPa
Nähtavus: More than 10 km
Cloud details: Clear m
EEEI 281550Z 07008KT CAVOK 11/05 Q1005 NOSIG
EETN - Tallinn L. Meri, Estonia
Distance from station: NE 187 km
Uuendatud: 28-09-2022 18:50
Clear  
Clear  
   Tuul: ENE 4.6 m/s
Tuul: ENE 4.6 m/s
Temperatuur: 10°C
Wind Chill: 8°C
Kastepunkt: 6°C
Niiskus: 76%
Baromeeter: 1006 hPa
Nähtavus: More than 10 km
Cloud details: Clear m
EETN 281550Z 06009KT CAVOK 10/06 Q1006 NOSIG
EETU - Tartu, Estonia
Distance from station: E 245 km
Uuendatud: 28-09-2022 18:50
Overcast  
Overcast  
   Tuul: ENE 3.6 m/s
Tuul: ENE 3.6 m/s
Temperatuur: 9°C
Wind Chill: 7°C
Kastepunkt: 6°C
Niiskus: 82%
Baromeeter: 1004 hPa
Pilvisus: Overcast
Nähtavus: More than 10 km
Cloud details: Osaliselt pilves 457.2 m,
Overcast 1188.7 m
EETU 281550Z AUTO 06007KT 9999 SCT015/// OVC039/// 09/06 Q1004
 

Script developed by  Saratoga-weather.org Adapted for the template by  Weerstation Leuven